메인 페이지
METAR-TAF:

METAR-TAF

공항 :

빈 국제공항

빈, 오스트리아

위도: 48-07N, 경도: 016-34E, 고도: 183m

현재 날씨관측

예보는 29분 전, 09:20시(UTC)에 발표되었습니다.
남동12kt
온도 16°C
습도 45%
기압 1022 hPa
시정 10km 이상
1500m 미만 상공 구름 및 적란운 없음

METAR: LOWW 150920Z 14012KT CAVOK 16/04 Q1022 NOSIG

시각: 11:49 (09:49 UTC)

예보

예보는 1 시간 34분 전, 08:15시(UTC)에 발표되었습니다.
예보 대상 시간: 15일 09시부터 16일 15시까지 (UTC)
남남동10kt
시정 10km 이상
1500m 미만 상공 구름 및 적란운 없음
일시적
15일 09시부터 15일 16시까지 (UTC)
남남동17kt, 순간 최대 풍속 27kt

TAF: LOWW 150815Z 1509/1615 15010KT CAVOK TX19/1512Z TN11/1606Z TEMPO 1509/1516 15017G27KT

4,000개 이상의 공항 관측 자료 및 예보 (METAR 및 TAF 보고).

지도상에서 검색 가능한 기상관측소가 노란 점과 빨간 점으로 표시되어 있습니다.

기상관측소 명을 보려면 표시 위로 마우스를 이동하세요.

날씨 관측과 예보를 보려면 클릭하세요.

지도 변경 : 확대하려면 엑스 표시가 있는 녹색 버튼, 축소하려면 빼기 표시가 있는 녹색 버튼, 다음 페이지의 지도를 보려면 녹색 화살표를 클릭하세요.


METAR-TAF: